Time;durP1;ratioP1;P1;durP2;ratioP2;P2;SDS_P1;SDS_P2;PMS_P1;PMS_P2;Temp;Humidity;BMP_temperature;BMP_pressure;BME280_temperature;BME280_humidity;BME280_pressure;Samples;Min_cycle;Max_cycle;Signal;HPM_P1;HPM_P2
2021/09/26 00:00:00;;;;;;;;;;;14.10;99.90;;;;;;5094163;28;19920;-77
2021/09/26 00:02:26;;;;;;;;;;;14.20;99.90;;;;;;5094193;28;19912;-77
2021/09/26 00:04:52;;;;;;;;;;;14.40;99.90;;;;;;5093521;28;19939;-77
2021/09/26 00:07:17;;;;;;;;;;;14.40;99.90;;;;;;5093882;28;19915;-77
2021/09/26 00:09:42;;;;;;;;;;;14.50;99.90;;;;;;5094127;28;19916;-77
2021/09/26 00:12:08;;;;;;;;;;;14.40;99.90;;;;;;5094175;28;19943;-77
2021/09/26 00:14:34;;;;;;;;;;;14.40;99.90;;;;;;5093544;28;19915;-77
2021/09/26 00:16:59;;;;;;;;;;;14.30;99.90;;;;;;5093937;28;19908;-77
2021/09/26 00:19:25;;;;;;;;;;;14.30;99.90;;;;;;5092493;28;19916;-77
2021/09/26 00:21:51;;;;;;;;;;;14.20;99.90;;;;;;5093698;28;19915;-77
2021/09/26 00:24:17;;;;;;;;;;;14.10;99.90;;;;;;5093110;28;19916;-77
2021/09/26 00:26:42;;;;;;;;;;;14.10;99.90;;;;;;5093429;28;19999;-77
2021/09/26 00:29:08;;;;;;;;;;;14.00;99.90;;;;;;5093338;28;19994;-77
2021/09/26 00:31:33;;;;;;;;;;;14.20;99.90;;;;;;5094405;28;19909;-77
2021/09/26 00:33:59;;;;;;;;;;;14.30;99.90;;;;;;5093397;28;19908;-77
2021/09/26 00:36:25;;;;;;;;;;;14.20;99.90;;;;;;5092045;28;19957;-77
2021/09/26 00:38:50;;;;;;;;;;;14.10;99.90;;;;;;5092954;28;20358;-75
2021/09/26 00:41:16;;;;;;;;;;;14.10;99.90;;;;;;5093614;28;19922;-76
2021/09/26 00:43:41;;;;;;;;;;;14.10;99.90;;;;;;5093307;28;20010;-77
2021/09/26 00:46:07;;;;;;;;;;;14.10;99.90;;;;;;5091770;28;20331;-77
2021/09/26 00:48:32;;;;;;;;;;;14.10;99.90;;;;;;5092092;28;19908;-76
2021/09/26 00:50:58;;;;;;;;;;;14.20;99.90;;;;;;5093190;28;20474;-77
2021/09/26 00:53:24;;;;;;;;;;;14.20;99.90;;;;;;5093179;28;19908;-77
2021/09/26 00:55:49;;;;;;;;;;;14.40;99.90;;;;;;5092300;28;20285;-77
2021/09/26 00:58:15;;;;;;;;;;;14.40;99.90;;;;;;5093116;28;19909;-76
2021/09/26 01:00:40;;;;;;;;;;;14.30;99.90;;;;;;5091694;28;20331;-77
2021/09/26 01:03:06;;;;;;;;;;;14.30;99.90;;;;;;5093098;28;19908;-77
2021/09/26 01:05:31;;;;;;;;;;;14.30;99.90;;;;;;5092238;28;20286;-77
2021/09/26 01:08:15;;;;;;;;;;;14.30;99.90;;;;;;5092907;28;19973;-76
2021/09/26 01:10:40;;;;;;;;;;;14.30;99.90;;;;;;5091768;28;19908;-77
2021/09/26 01:13:11;;;;;;;;;;;14.30;99.90;;;;;;5093063;28;19908;-77
2021/09/26 01:15:46;;;;;;;;;;;14.20;99.90;;;;;;5086060;28;19914;-77
2021/09/26 01:18:22;;;;;;;;;;;14.20;99.90;;;;;;5092493;28;20387;-77
2021/09/26 01:20:59;;;;;;;;;;;14.20;99.90;;;;;;5092870;28;20415;-76
2021/09/26 01:23:41;;;;;;;;;;;14.10;99.90;;;;;;5091253;28;19908;-77
2021/09/26 01:26:35;;;;;;;;;;;14.20;99.90;;;;;;5091250;28;19940;-77
2021/09/26 01:29:06;;;;;;;;;;;14.00;99.90;;;;;;5088617;28;19908;-77
2021/09/26 01:31:35;;;;;;;;;;;13.90;99.90;;;;;;5092749;28;19916;-77
2021/09/26 01:34:38;;;;;;;;;;;14.00;99.90;;;;;;5092237;28;19912;-77
2021/09/26 01:37:10;;;;;;;;;;;14.20;99.90;;;;;;5064758;28;19912;-77
2021/09/26 01:39:44;;;;;;;;;;;14.60;99.90;;;;;;5069821;28;19913;-77
2021/09/26 01:42:16;;;;;;;;;;;14.90;99.90;;;;;;5082435;28;19935;-76
2021/09/26 01:44:48;;;;;;;;;;;14.90;99.90;;;;;;5090737;28;19912;-77
2021/09/26 01:47:16;;;;;;;;;;;14.90;99.90;;;;;;5092277;28;19989;-77
2021/09/26 01:49:45;;;;;;;;;;;14.80;99.90;;;;;;5090183;28;19915;-77
2021/09/26 01:52:14;;;;;;;;;;;14.90;99.90;;;;;;5092273;28;20270;-76
2021/09/26 01:54:40;;;;;;;;;;;15.00;99.90;;;;;;5091555;28;20381;-75
2021/09/26 01:57:06;;;;;;;;;;;15.20;99.90;;;;;;5089742;28;19909;-77
2021/09/26 01:59:32;;;;;;;;;;;15.00;99.90;;;;;;5092154;28;19951;-77
2021/09/26 02:01:58;;;;;;;;;;;14.90;99.90;;;;;;5091941;28;20431;-77
2021/09/26 02:04:24;;;;;;;;;;;14.80;99.90;;;;;;5091596;28;19969;-77
2021/09/26 02:06:50;;;;;;;;;;;14.80;99.90;;;;;;5092266;28;19962;-77
2021/09/26 02:09:16;;;;;;;;;;;14.70;99.90;;;;;;5092057;28;19915;-77
2021/09/26 02:11:41;;;;;;;;;;;14.70;99.90;;;;;;5091894;28;19908;-77
2021/09/26 02:14:08;;;;;;;;;;;14.60;99.90;;;;;;5090442;28;19934;-76
2021/09/26 02:16:34;;;;;;;;;;;14.40;99.90;;;;;;5091781;28;20007;-77
2021/09/26 02:19:01;;;;;;;;;;;14.10;99.90;;;;;;5090348;28;20367;-77
2021/09/26 02:21:28;;;;;;;;;;;14.00;99.90;;;;;;5090478;28;19954;-75
2021/09/26 02:23:54;;;;;;;;;;;13.80;99.90;;;;;;5090037;28;19909;-77
2021/09/26 02:26:20;;;;;;;;;;;13.70;99.90;;;;;;5091254;28;20006;-77
2021/09/26 02:28:46;;;;;;;;;;;13.70;99.90;;;;;;5090432;28;19948;-77
2021/09/26 02:31:13;;;;;;;;;;;13.80;99.90;;;;;;5090238;28;19965;-76
2021/09/26 02:33:40;;;;;;;;;;;13.70;99.90;;;;;;5091461;28;19954;-77
2021/09/26 02:36:06;;;;;;;;;;;13.60;99.90;;;;;;5091201;28;19912;-76
2021/09/26 02:38:32;;;;;;;;;;;13.70;99.90;;;;;;5091574;28;19970;-76
2021/09/26 02:41:01;;;;;;;;;;;13.60;99.90;;;;;;5091466;28;19939;-76
2021/09/26 02:43:37;;;;;;;;;;;13.70;99.90;;;;;;5090382;28;19908;-77
2021/09/26 02:46:06;;;;;;;;;;;13.70;99.90;;;;;;5091042;28;19951;-76
2021/09/26 02:48:32;;;;;;;;;;;13.70;99.90;;;;;;5091436;28;19915;-77
2021/09/26 02:50:58;;;;;;;;;;;13.80;99.90;;;;;;5091430;28;19958;-77
2021/09/26 02:53:25;;;;;;;;;;;13.70;99.90;;;;;;5090080;28;19964;-77
2021/09/26 02:55:51;;;;;;;;;;;13.60;99.90;;;;;;5089185;28;19908;-77
2021/09/26 02:58:16;;;;;;;;;;;13.60;99.90;;;;;;5091111;28;19916;-77
2021/09/26 03:00:43;;;;;;;;;;;13.40;99.90;;;;;;5091590;28;19916;-77
2021/09/26 03:03:10;;;;;;;;;;;13.40;99.90;;;;;;5096510;28;19915;-77
2021/09/26 03:05:37;;;;;;;;;;;13.30;99.90;;;;;;5097620;28;19912;-77
2021/09/26 03:08:02;;;;;;;;;;;13.20;99.90;;;;;;5097966;28;20057;-76
2021/09/26 03:10:28;;;;;;;;;;;13.00;99.90;;;;;;5098555;28;19940;-77
2021/09/26 03:12:53;;;;;;;;;;;13.10;99.90;;;;;;5097732;28;20010;-77
2021/09/26 03:15:19;;;;;;;;;;;13.30;99.90;;;;;;5097457;28;19908;-76
2021/09/26 03:17:44;;;;;;;;;;;13.20;99.90;;;;;;5097815;28;20338;-77
2021/09/26 03:20:10;;;;;;;;;;;13.20;99.90;;;;;;5097752;28;19916;-77
2021/09/26 03:22:35;;;;;;;;;;;13.10;99.90;;;;;;5096530;28;19957;-77
2021/09/26 03:25:01;;;;;;;;;;;13.00;99.90;;;;;;5097272;28;20362;-77
2021/09/26 03:27:26;;;;;;;;;;;13.20;99.90;;;;;;5097511;28;19958;-76
2021/09/26 03:29:52;;;;;;;;;;;13.20;99.90;;;;;;5096451;28;19912;-76
2021/09/26 03:32:17;;;;;;;;;;;13.30;99.90;;;;;;5097607;28;19992;-76
2021/09/26 03:34:43;;;;;;;;;;;13.40;99.90;;;;;;5097231;28;20427;-77
2021/09/26 03:37:08;;;;;;;;;;;13.70;99.90;;;;;;5097704;28;19915;-76
2021/09/26 03:39:35;;;;;;;;;;;13.80;99.90;;;;;;5096355;28;19912;-77
2021/09/26 03:42:00;;;;;;;;;;;13.70;99.90;;;;;;5097481;28;19908;-77
2021/09/26 03:44:26;;;;;;;;;;;13.50;99.90;;;;;;5097172;28;20359;-77
2021/09/26 03:46:52;;;;;;;;;;;13.30;99.90;;;;;;5097597;28;19919;-76
2021/09/26 03:49:18;;;;;;;;;;;13.10;99.90;;;;;;5097506;28;20003;-76
2021/09/26 03:51:44;;;;;;;;;;;13.00;99.90;;;;;;5097465;28;19908;-76
2021/09/26 03:54:10;;;;;;;;;;;13.10;99.90;;;;;;5096905;28;19911;-76
2021/09/26 03:56:35;;;;;;;;;;;13.10;99.90;;;;;;5097092;28;19908;-77
2021/09/26 03:59:01;;;;;;;;;;;13.10;99.90;;;;;;5097443;28;20010;-77
2021/09/26 04:01:27;;;;;;;;;;;12.80;99.90;;;;;;5095982;28;19936;-76
2021/09/26 04:03:52;;;;;;;;;;;12.70;99.90;;;;;;5095833;28;20003;-76
2021/09/26 04:06:18;;;;;;;;;;;12.70;99.90;;;;;;5095863;28;20388;-77
2021/09/26 04:08:43;;;;;;;;;;;12.70;99.90;;;;;;5096101;28;19909;-77
2021/09/26 04:11:09;;;;;;;;;;;12.90;99.90;;;;;;5097186;28;19916;-77
2021/09/26 04:13:35;;;;;;;;;;;13.00;99.90;;;;;;5094553;28;20366;-77
2021/09/26 04:16:01;;;;;;;;;;;13.00;99.90;;;;;;5093866;28;19915;-77
2021/09/26 04:18:26;;;;;;;;;;;13.00;99.90;;;;;;5092853;28;19908;-76
2021/09/26 04:20:53;;;;;;;;;;;13.10;99.90;;;;;;5093173;28;19916;-77
2021/09/26 04:23:18;;;;;;;;;;;13.10;99.90;;;;;;5091423;28;20010;-75
2021/09/26 04:25:44;;;;;;;;;;;13.10;99.90;;;;;;5091005;28;19987;-77
2021/09/26 04:28:09;;;;;;;;;;;13.10;99.90;;;;;;5091904;28;19908;-77
2021/09/26 04:30:36;;;;;;;;;;;13.10;99.90;;;;;;5093140;28;19916;-76
2021/09/26 04:33:02;;;;;;;;;;;13.10;99.90;;;;;;5090453;28;19912;-77
2021/09/26 04:35:28;;;;;;;;;;;13.00;99.90;;;;;;5091416;28;20397;-76
2021/09/26 04:37:53;;;;;;;;;;;13.00;99.90;;;;;;5092676;28;19913;-76
2021/09/26 04:40:19;;;;;;;;;;;12.90;99.90;;;;;;5092807;28;20309;-76
2021/09/26 04:42:45;;;;;;;;;;;12.70;99.90;;;;;;5092890;28;19935;-76
2021/09/26 04:45:11;;;;;;;;;;;12.60;99.90;;;;;;5092519;28;19951;-77
2021/09/26 04:47:37;;;;;;;;;;;12.40;99.90;;;;;;5092699;28;19916;-77
2021/09/26 04:50:03;;;;;;;;;;;12.30;99.90;;;;;;5092735;28;19908;-77
2021/09/26 04:52:29;;;;;;;;;;;12.10;99.90;;;;;;5092782;28;19995;-77
2021/09/26 04:54:54;;;;;;;;;;;12.10;99.90;;;;;;5091853;28;19951;-76
2021/09/26 04:57:20;;;;;;;;;;;12.10;99.90;;;;;;5092550;28;20366;-76
2021/09/26 04:59:45;;;;;;;;;;;12.10;99.90;;;;;;5091438;28;19912;-76
2021/09/26 05:02:11;;;;;;;;;;;12.20;99.90;;;;;;5093211;28;20313;-77
2021/09/26 05:04:36;;;;;;;;;;;12.40;99.90;;;;;;5092682;28;19962;-77
2021/09/26 05:07:02;;;;;;;;;;;12.40;99.90;;;;;;5093039;28;20006;-76
2021/09/26 05:09:27;;;;;;;;;;;12.20;99.90;;;;;;5092817;28;19915;-77
2021/09/26 05:11:54;;;;;;;;;;;12.20;99.90;;;;;;5093040;28;19909;-76
2021/09/26 05:14:20;;;;;;;;;;;12.20;99.90;;;;;;5092506;28;19908;-77
2021/09/26 05:16:45;;;;;;;;;;;12.10;99.90;;;;;;5091825;28;19931;-77
2021/09/26 05:19:11;;;;;;;;;;;12.10;99.90;;;;;;5092971;28;19919;-76
2021/09/26 05:21:36;;;;;;;;;;;11.90;99.90;;;;;;5092816;28;19993;-77
2021/09/26 05:24:02;;;;;;;;;;;12.00;99.90;;;;;;5090359;28;19995;-76
2021/09/26 05:26:28;;;;;;;;;;;11.90;99.90;;;;;;5091668;28;20041;-77
2021/09/26 05:28:54;;;;;;;;;;;12.10;99.90;;;;;;5091227;28;19908;-76
2021/09/26 05:31:19;;;;;;;;;;;12.20;99.90;;;;;;5092717;28;19908;-77
2021/09/26 05:33:45;;;;;;;;;;;12.20;99.90;;;;;;5092458;28;20441;-76
2021/09/26 05:36:10;;;;;;;;;;;12.20;99.90;;;;;;5092140;28;20389;-76
2021/09/26 05:38:36;;;;;;;;;;;12.10;99.90;;;;;;5092313;28;19962;-77
2021/09/26 05:41:01;;;;;;;;;;;12.20;99.90;;;;;;5092422;28;19920;-77
2021/09/26 05:43:27;;;;;;;;;;;12.20;99.90;;;;;;5092363;28;20336;-77
2021/09/26 05:45:52;;;;;;;;;;;12.10;99.90;;;;;;5092013;28;19908;-77
2021/09/26 05:48:18;;;;;;;;;;;12.10;99.90;;;;;;5090721;28;20335;-77
2021/09/26 05:50:43;;;;;;;;;;;12.10;99.90;;;;;;5092268;28;20015;-75
2021/09/26 05:53:09;;;;;;;;;;;12.50;99.90;;;;;;5092051;28;19919;-76
2021/09/26 05:55:34;;;;;;;;;;;12.50;99.90;;;;;;5091457;28;19908;-77
2021/09/26 05:58:00;;;;;;;;;;;12.40;99.90;;;;;;5092077;28;20274;-77
2021/09/26 06:00:26;;;;;;;;;;;12.40;99.90;;;;;;5090645;28;19923;-76
2021/09/26 06:02:52;;;;;;;;;;;12.40;99.90;;;;;;5092031;28;19912;-76
2021/09/26 06:05:18;;;;;;;;;;;12.50;99.90;;;;;;5091444;28;19923;-76
2021/09/26 06:07:44;;;;;;;;;;;12.40;99.90;;;;;;5091779;28;19953;-76
2021/09/26 06:10:10;;;;;;;;;;;12.50;99.90;;;;;;5091853;28;19912;-76
2021/09/26 06:12:35;;;;;;;;;;;12.70;99.90;;;;;;5091642;28;19908;-76
2021/09/26 06:15:03;;;;;;;;;;;12.70;99.90;;;;;;5091324;28;20012;-77
2021/09/26 06:17:29;;;;;;;;;;;12.60;99.90;;;;;;5091784;28;19908;-76
2021/09/26 06:19:55;;;;;;;;;;;12.70;99.90;;;;;;5092117;28;19912;-77
2021/09/26 06:22:20;;;;;;;;;;;12.90;99.90;;;;;;5091460;28;19914;-76
2021/09/26 06:24:46;;;;;;;;;;;12.80;99.90;;;;;;5090909;28;19923;-76
2021/09/26 06:27:12;;;;;;;;;;;12.80;99.90;;;;;;5091379;28;19912;-76
2021/09/26 06:29:38;;;;;;;;;;;13.00;99.90;;;;;;5091567;28;19908;-76
2021/09/26 06:32:04;;;;;;;;;;;13.10;99.90;;;;;;5091524;28;19908;-77
2021/09/26 06:34:29;;;;;;;;;;;13.20;99.90;;;;;;5090969;28;19909;-77
2021/09/26 06:36:55;;;;;;;;;;;13.30;99.90;;;;;;5090836;28;19912;-77
2021/09/26 06:39:20;;;;;;;;;;;13.50;99.90;;;;;;5091399;28;19923;-76
2021/09/26 06:41:46;;;;;;;;;;;13.70;99.90;;;;;;5091309;28;19916;-77
2021/09/26 06:44:13;;;;;;;;;;;13.80;99.90;;;;;;5091007;28;20318;-77
2021/09/26 06:46:39;;;;;;;;;;;14.00;99.90;;;;;;5090008;28;19916;-76
2021/09/26 06:49:05;;;;;;;;;;;14.20;99.90;;;;;;5091236;28;19908;-76
2021/09/26 06:51:32;;;;;;;;;;;14.50;99.90;;;;;;5091075;28;20374;-77
2021/09/26 06:53:57;;;;;;;;;;;14.70;99.90;;;;;;5089509;28;20008;-77
2021/09/26 06:56:23;;;;;;;;;;;14.90;99.90;;;;;;5089348;28;20370;-75
2021/09/26 06:58:48;;;;;;;;;;;15.00;99.90;;;;;;5091030;28;19915;-77
2021/09/26 07:01:14;;;;;;;;;;;15.20;99.90;;;;;;5091037;28;19915;-77
2021/09/26 07:03:39;;;;;;;;;;;15.50;99.90;;;;;;5090939;28;19938;-77
2021/09/26 07:06:05;;;;;;;;;;;15.70;99.90;;;;;;5090629;28;19954;-76
2021/09/26 07:08:31;;;;;;;;;;;16.10;99.90;;;;;;5091067;28;19915;-77
2021/09/26 07:10:57;;;;;;;;;;;16.20;99.90;;;;;;5091065;28;19908;-76
2021/09/26 07:13:22;;;;;;;;;;;16.30;99.90;;;;;;5091096;28;20393;-77
2021/09/26 07:15:48;;;;;;;;;;;16.50;99.90;;;;;;5090540;28;20329;-77
2021/09/26 07:18:13;;;;;;;;;;;16.70;99.90;;;;;;5090964;28;19908;-76
2021/09/26 07:20:39;;;;;;;;;;;16.90;99.90;;;;;;5090805;28;19921;-77
2021/09/26 07:23:04;;;;;;;;;;;17.10;99.90;;;;;;5090862;28;20289;-77
2021/09/26 07:25:30;;;;;;;;;;;17.40;99.90;;;;;;5085022;28;19958;-76
2021/09/26 07:27:57;;;;;;;;;;;17.60;99.90;;;;;;5090683;28;20283;-77
2021/09/26 07:30:23;;;;;;;;;;;17.80;99.90;;;;;;5091003;28;19912;-77
2021/09/26 07:32:48;;;;;;;;;;;18.10;99.90;;;;;;5089608;28;19919;-77
2021/09/26 07:35:14;;;;;;;;;;;18.60;99.90;;;;;;5090645;28;19908;-77
2021/09/26 07:37:40;;;;;;;;;;;18.80;99.90;;;;;;5091086;28;20030;-77
2021/09/26 07:40:06;;;;;;;;;;;19.20;99.90;;;;;;5090636;28;20361;-77
2021/09/26 07:42:31;;;;;;;;;;;19.60;99.90;;;;;;5089383;28;20367;-77
2021/09/26 07:45:00;;;;;;;;;;;20.20;99.90;;;;;;5090236;28;19963;-77
2021/09/26 07:47:26;;;;;;;;;;;20.60;99.90;;;;;;5090783;28;19908;-76
2021/09/26 07:49:52;;;;;;;;;;;21.70;99.90;;;;;;5094183;28;19912;-77
2021/09/26 07:52:17;;;;;;;;;;;22.20;99.90;;;;;;5093165;28;19909;-77
2021/09/26 07:54:43;;;;;;;;;;;21.70;99.90;;;;;;5093623;28;19908;-77
2021/09/26 07:57:08;;;;;;;;;;;21.40;99.90;;;;;;5094248;28;19916;-76
2021/09/26 07:59:34;;;;;;;;;;;21.00;99.90;;;;;;5092928;28;19916;-77
2021/09/26 08:01:59;;;;;;;;;;;20.50;99.90;;;;;;5092947;28;19912;-77
2021/09/26 08:04:25;;;;;;;;;;;20.50;99.90;;;;;;5093434;28;19920;-77
2021/09/26 08:06:50;;;;;;;;;;;20.60;99.90;;;;;;5094243;28;19931;-76
2021/09/26 08:09:16;;;;;;;;;;;20.20;99.90;;;;;;5092767;28;19908;-77
2021/09/26 08:11:42;;;;;;;;;;;19.80;99.90;;;;;;5094117;28;19912;-77
2021/09/26 08:14:07;;;;;;;;;;;19.70;99.90;;;;;;5093665;28;20290;-77
2021/09/26 08:16:32;;;;;;;;;;;19.60;99.90;;;;;;5092685;28;19908;-77
2021/09/26 08:18:58;;;;;;;;;;;19.60;99.90;;;;;;5093612;28;20437;-77
2021/09/26 08:21:23;;;;;;;;;;;19.40;99.90;;;;;;5093585;28;19908;-77
2021/09/26 08:23:49;;;;;;;;;;;19.40;99.90;;;;;;5093064;28;20291;-76
2021/09/26 08:26:15;;;;;;;;;;;19.60;99.90;;;;;;5091876;28;19999;-77
2021/09/26 08:28:40;;;;;;;;;;;19.60;99.90;;;;;;5093285;28;19912;-77
2021/09/26 08:31:06;;;;;;;;;;;19.80;99.90;;;;;;5092150;28;19942;-76
2021/09/26 08:33:31;;;;;;;;;;;19.90;99.90;;;;;;5092046;28;20357;-76
2021/09/26 08:35:57;;;;;;;;;;;19.80;99.90;;;;;;5093075;28;20375;-77
2021/09/26 08:38:23;;;;;;;;;;;19.50;99.90;;;;;;5093353;28;19908;-77
2021/09/26 08:40:49;;;;;;;;;;;19.50;99.90;;;;;;5093617;28;20266;-77
2021/09/26 08:43:16;;;;;;;;;;;19.40;99.90;;;;;;5093563;28;20331;-77
2021/09/26 08:45:42;;;;;;;;;;;19.20;99.90;;;;;;5092720;28;19973;-76
2021/09/26 08:48:08;;;;;;;;;;;19.20;99.90;;;;;;5092638;28;19912;-77
2021/09/26 08:50:34;;;;;;;;;;;19.10;99.90;;;;;;5092647;28;19908;-77
2021/09/26 08:52:59;;;;;;;;;;;19.00;99.90;;;;;;5092814;28;19915;-76
2021/09/26 08:55:25;;;;;;;;;;;18.80;99.90;;;;;;5092583;28;20042;-77
2021/09/26 08:57:50;;;;;;;;;;;18.40;99.90;;;;;;5091905;28;19909;-76
2021/09/26 09:00:16;;;;;;;;;;;18.20;99.90;;;;;;5092780;28;19912;-77
2021/09/26 09:02:45;;;;;;;;;;;18.00;99.90;;;;;;5093168;28;19912;-77
2021/09/26 09:05:30;;;;;;;;;;;18.00;99.90;;;;;;5092706;28;19920;-77
2021/09/26 09:08:05;;;;;;;;;;;18.10;99.90;;;;;;5088820;28;19954;-77
2021/09/26 09:11:00;;;;;;;;;;;18.10;99.90;;;;;;5091685;28;19908;-74
2021/09/26 09:13:33;;;;;;;;;;;18.00;99.90;;;;;;5086991;28;20247;-77
2021/09/26 09:16:13;;;;;;;;;;;17.90;99.90;;;;;;5091847;28;19938;-75
2021/09/26 09:18:50;;;;;;;;;;;17.90;99.90;;;;;;5090159;28;19998;-77
2021/09/26 09:21:17;;;;;;;;;;;17.90;99.90;;;;;;5087627;28;19918;-77
2021/09/26 09:23:43;;;;;;;;;;;17.90;99.90;;;;;;5092326;28;20031;-75
2021/09/26 09:26:08;;;;;;;;;;;17.90;99.90;;;;;;5090812;28;19940;-77
2021/09/26 09:28:39;;;;;;;;;;;18.00;99.90;;;;;;5091186;28;19954;-77
2021/09/26 09:31:05;;;;;;;;;;;18.00;99.90;;;;;;5092569;28;19908;-77
2021/09/26 09:33:49;;;;;;;;;;;18.10;99.90;;;;;;5091205;28;20321;-77
2021/09/26 09:36:18;;;;;;;;;;;18.00;99.90;;;;;;5090721;28;19919;-77
2021/09/26 09:38:43;;;;;;;;;;;17.90;99.90;;;;;;5092303;28;19912;-75
2021/09/26 09:41:09;;;;;;;;;;;17.80;99.90;;;;;;5092322;28;19912;-76
2021/09/26 09:43:45;;;;;;;;;;;17.50;99.90;;;;;;5092346;28;20294;-77
2021/09/26 09:46:10;;;;;;;;;;;17.50;99.90;;;;;;5091961;28;20271;-77
2021/09/26 09:48:36;;;;;;;;;;;17.40;99.90;;;;;;5090479;28;19915;-76
2021/09/26 09:51:01;;;;;;;;;;;17.40;99.90;;;;;;5090251;28;19943;-75
2021/09/26 09:53:27;;;;;;;;;;;17.40;99.90;;;;;;5092060;28;19960;-77
2021/09/26 09:55:55;;;;;;;;;;;17.50;99.90;;;;;;5091293;28;19915;-77
2021/09/26 09:58:21;;;;;;;;;;;17.50;99.90;;;;;;5092174;28;19908;-77
2021/09/26 10:00:47;;;;;;;;;;;17.60;99.90;;;;;;5091874;28;19981;-76
2021/09/26 10:03:33;;;;;;;;;;;17.70;99.90;;;;;;5091690;28;19912;-78
2021/09/26 10:05:59;;;;;;;;;;;17.70;99.90;;;;;;5091466;28;19916;-76
2021/09/26 10:08:34;;;;;;;;;;;17.70;99.90;;;;;;5091748;28;19915;-76
2021/09/26 10:11:06;;;;;;;;;;;17.70;99.90;;;;;;5091223;28;19908;-76
2021/09/26 10:13:31;;;;;;;;;;;17.80;99.90;;;;;;5085219;28;19915;-76
2021/09/26 10:15:57;;;;;;;;;;;17.90;99.90;;;;;;5091389;28;19912;-76
2021/09/26 10:18:23;;;;;;;;;;;17.90;99.90;;;;;;5091724;28;20287;-76
2021/09/26 10:20:48;;;;;;;;;;;18.20;99.90;;;;;;5091393;28;19918;-77
2021/09/26 10:23:14;;;;;;;;;;;18.70;99.90;;;;;;5091523;28;19915;-77
2021/09/26 10:25:40;;;;;;;;;;;19.00;99.90;;;;;;5090629;28;19922;-75
2021/09/26 10:28:06;;;;;;;;;;;19.60;99.90;;;;;;5091380;28;19908;-76
2021/09/26 10:30:32;;;;;;;;;;;19.50;99.90;;;;;;5091527;28;20380;-77
2021/09/26 10:32:59;;;;;;;;;;;19.20;99.90;;;;;;5091677;28;19913;-77
2021/09/26 10:35:26;;;;;;;;;;;19.00;99.90;;;;;;5089672;28;20143;-76
2021/09/26 10:37:53;;;;;;;;;;;18.80;99.90;;;;;;5091345;28;19966;-77
2021/09/26 10:40:19;;;;;;;;;;;18.80;99.90;;;;;;5090002;28;20023;-76
2021/09/26 10:42:45;;;;;;;;;;;18.70;99.90;;;;;;5091093;28;19998;-77
2021/09/26 10:45:10;;;;;;;;;;;18.50;99.90;;;;;;5090919;28;19908;-76
2021/09/26 10:47:39;;;;;;;;;;;18.50;99.90;;;;;;5091577;28;19909;-77
2021/09/26 10:50:15;;;;;;;;;;;18.40;99.90;;;;;;5091101;28;19953;-77
2021/09/26 10:52:42;;;;;;;;;;;18.20;99.90;;;;;;5091220;28;19908;-77
2021/09/26 10:55:14;;;;;;;;;;;18.00;99.90;;;;;;5088628;28;19908;-77
2021/09/26 10:57:40;;;;;;;;;;;17.90;99.90;;;;;;5090956;28;19948;-76
2021/09/26 11:00:06;;;;;;;;;;;17.80;99.90;;;;;;5090878;28;19912;-77
2021/09/26 11:02:32;;;;;;;;;;;17.80;99.90;;;;;;5091077;28;20003;-77
2021/09/26 11:04:59;;;;;;;;;;;17.70;99.90;;;;;;5090471;28;20062;-77
2021/09/26 11:07:29;;;;;;;;;;;17.70;99.90;;;;;;5091239;28;20370;-77
2021/09/26 11:10:02;;;;;;;;;;;17.80;99.90;;;;;;5090897;28;19908;-76
2021/09/26 11:12:48;;;;;;;;;;;17.90;99.90;;;;;;5084550;28;19909;-75
2021/09/26 11:15:16;;;;;;;;;;;18.00;99.90;;;;;;5089178;28;19915;-77
2021/09/26 11:17:42;;;;;;;;;;;18.30;99.90;;;;;;5090912;28;20271;-77
2021/09/26 11:20:09;;;;;;;;;;;18.40;99.90;;;;;;5090638;28;19912;-76
2021/09/26 11:22:34;;;;;;;;;;;18.60;99.90;;;;;;5092440;28;19908;-77
2021/09/26 11:25:00;;;;;;;;;;;18.80;99.90;;;;;;5094079;28;19999;-77
2021/09/26 11:27:35;;;;;;;;;;;19.30;99.90;;;;;;5094895;28;20378;-77
2021/09/26 11:30:01;;;;;;;;;;;19.90;99.90;;;;;;5095185;28;20492;-77
2021/09/26 11:32:28;;;;;;;;;;;19.80;99.90;;;;;;5094839;28;19947;-75
2021/09/26 11:34:55;;;;;;;;;;;19.80;99.90;;;;;;5094602;28;20556;-77
2021/09/26 11:37:37;;;;;;;;;;;20.20;99.90;;;;;;5094699;28;19918;-77
2021/09/26 11:40:04;;;;;;;;;;;20.10;99.90;;;;;;5094568;28;19962;-75
2021/09/26 11:42:36;;;;;;;;;;;20.30;99.90;;;;;;5094690;28;19908;-77
2021/09/26 11:45:09;;;;;;;;;;;20.30;99.90;;;;;;5094195;28;20412;-77
2021/09/26 11:47:34;;;;;;;;;;;20.50;99.90;;;;;;5094517;28;19912;-77
2021/09/26 11:50:04;;;;;;;;;;;20.60;99.90;;;;;;5094346;28;20423;-77
2021/09/26 11:52:34;;;;;;;;;;;20.60;99.90;;;;;;5094496;28;20003;-77
2021/09/26 11:55:00;;;;;;;;;;;20.80;99.90;;;;;;5089891;28;19923;-77
2021/09/26 11:57:26;;;;;;;;;;;20.80;99.90;;;;;;5094293;28;20274;-77
2021/09/26 11:59:51;;;;;;;;;;;21.10;99.90;;;;;;5094431;28;19912;-76
2021/09/26 12:02:17;;;;;;;;;;;21.20;99.90;;;;;;5094307;28;19915;-77
2021/09/26 12:04:43;;;;;;;;;;;21.40;99.90;;;;;;5092210;28;20370;-77
2021/09/26 12:07:09;;;;;;;;;;;21.30;99.90;;;;;;5092916;28;19915;-77
2021/09/26 12:09:35;;;;;;;;;;;21.20;99.90;;;;;;5094134;28;19908;-77
2021/09/26 12:12:01;;;;;;;;;;;21.20;99.90;;;;;;5094005;28;20382;-77
2021/09/26 12:14:30;;;;;;;;;;;21.00;99.90;;;;;;5092145;28;19908;-77
2021/09/26 12:16:57;;;;;;;;;;;20.70;99.90;;;;;;5093942;28;19927;-76
2021/09/26 12:19:22;;;;;;;;;;;20.80;99.90;;;;;;5093831;28;19916;-77
2021/09/26 12:21:57;;;;;;;;;;;21.10;99.90;;;;;;5093853;28;19995;-76
2021/09/26 12:24:29;;;;;;;;;;;21.40;99.90;;;;;;5093343;28;20389;-77
2021/09/26 12:26:54;;;;;;;;;;;21.60;99.90;;;;;;5093200;28;19908;-77
2021/09/26 12:29:22;;;;;;;;;;;21.60;99.90;;;;;;5093712;28;19909;-76
2021/09/26 12:31:51;;;;;;;;;;;21.50;99.90;;;;;;5093608;28;19917;-77
2021/09/26 12:34:25;;;;;;;;;;;21.40;99.90;;;;;;5092392;28;19908;-77
2021/09/26 12:36:51;;;;;;;;;;;21.50;99.90;;;;;;5087652;28;19999;-77
2021/09/26 12:39:19;;;;;;;;;;;21.60;99.90;;;;;;5093365;28;20046;-77
2021/09/26 12:41:47;;;;;;;;;;;22.00;99.90;;;;;;5093509;28;19908;-76
2021/09/26 12:44:13;;;;;;;;;;;22.10;99.90;;;;;;5093293;28;20342;-77
2021/09/26 12:46:39;;;;;;;;;;;21.90;99.90;;;;;;5093446;28;19914;-77
2021/09/26 12:49:10;;;;;;;;;;;21.70;99.90;;;;;;5093255;28;19908;-77
2021/09/26 12:51:38;;;;;;;;;;;21.50;99.90;;;;;;5093393;28;20393;-77
2021/09/26 12:54:05;;;;;;;;;;;21.20;99.90;;;;;;5092829;28;20266;-77
2021/09/26 12:56:34;;;;;;;;;;;21.10;99.90;;;;;;5092873;28;19934;-77
2021/09/26 12:59:15;;;;;;;;;;;21.10;99.90;;;;;;5093141;28;19908;-77
2021/09/26 13:01:41;;;;;;;;;;;21.10;99.90;;;;;;5091823;28;19912;-76
2021/09/26 13:04:15;;;;;;;;;;;21.20;99.90;;;;;;5092436;28;19922;-77
2021/09/26 13:06:48;;;;;;;;;;;21.00;99.90;;;;;;5092967;28;19999;-77
2021/09/26 13:09:19;;;;;;;;;;;21.10;99.90;;;;;;5092936;28;20393;-77
2021/09/26 13:11:44;;;;;;;;;;;21.20;99.90;;;;;;5092989;28;19908;-77
2021/09/26 13:14:16;;;;;;;;;;;21.20;99.90;;;;;;5092449;28;19908;-77
2021/09/26 13:16:46;;;;;;;;;;;21.30;99.90;;;;;;5092781;28;19909;-76
2021/09/26 13:19:37;;;;;;;;;;;21.50;99.90;;;;;;5092595;28;19908;-75
2021/09/26 13:22:09;;;;;;;;;;;21.60;99.90;;;;;;5087004;28;20267;-77
2021/09/26 13:24:37;;;;;;;;;;;21.70;99.90;;;;;;5092146;28;19915;-77
2021/09/26 13:27:17;;;;;;;;;;;21.80;99.90;;;;;;5092449;28;19912;-77
2021/09/26 13:29:43;;;;;;;;;;;21.80;99.90;;;;;;5092689;28;19947;-77
2021/09/26 13:32:19;;;;;;;;;;;22.00;99.90;;;;;;5091269;28;19909;-77
2021/09/26 13:34:45;;;;;;;;;;;21.80;99.90;;;;;;5091949;28;20370;-77
2021/09/26 13:37:12;;;;;;;;;;;22.10;99.90;;;;;;5091249;28;19931;-76
2021/09/26 13:39:46;;;;;;;;;;;21.90;99.90;;;;;;5092159;28;19954;-76
2021/09/26 13:42:21;;;;;;;;;;;21.90;99.90;;;;;;5092488;28;19912;-77
2021/09/26 13:44:47;;;;;;;;;;;21.90;99.90;;;;;;5085828;28;19908;-77
2021/09/26 13:47:13;;;;;;;;;;;22.10;99.90;;;;;;5091334;28;20447;-76
2021/09/26 13:49:39;;;;;;;;;;;21.80;99.90;;;;;;5092330;28;19908;-76
2021/09/26 13:52:04;;;;;;;;;;;21.60;99.90;;;;;;5092313;28;19908;-77
2021/09/26 13:54:31;;;;;;;;;;;21.80;99.90;;;;;;5091438;28;19986;-77
2021/09/26 13:56:57;;;;;;;;;;;22.10;99.90;;;;;;5091686;28;19960;-76
2021/09/26 13:59:23;;;;;;;;;;;22.00;99.90;;;;;;5090662;28;20379;-77
2021/09/26 14:01:49;;;;;;;;;;;21.60;99.90;;;;;;5091935;28;19992;-77
2021/09/26 14:04:14;;;;;;;;;;;21.60;99.90;;;;;;5091351;28;19920;-77
2021/09/26 14:06:40;;;;;;;;;;;21.70;99.90;;;;;;5090646;28;19961;-77
2021/09/26 14:09:05;;;;;;;;;;;21.90;99.90;;;;;;5091709;28;19934;-77
2021/09/26 14:11:31;;;;;;;;;;;21.60;99.90;;;;;;5090849;28;19915;-77
2021/09/26 14:13:57;;;;;;;;;;;21.60;99.90;;;;;;5091645;28;19948;-77
2021/09/26 14:16:23;;;;;;;;;;;21.70;99.90;;;;;;5091424;28;19912;-77